createdAt,value
2023-03-17T00:02:01.131Z,-3.36
2023-03-17T00:04:42.491Z,-3.43
2023-03-17T00:07:20.292Z,-3.43
2023-03-17T00:09:55.449Z,-3.43
2023-03-17T00:12:43.913Z,-3.49
2023-03-17T00:15:28.447Z,-3.51
2023-03-17T00:18:21.328Z,-3.40
2023-03-17T00:21:05.817Z,-3.47
2023-03-17T00:23:54.995Z,-3.46
2023-03-17T00:26:28.763Z,-3.56
2023-03-17T00:29:07.760Z,-3.61
2023-03-17T00:31:54.413Z,-3.60
2023-03-17T00:34:32.598Z,-3.64
2023-03-17T00:37:07.813Z,-3.65
2023-03-17T00:39:49.545Z,-3.70
2023-03-17T00:42:34.001Z,-3.79
2023-03-17T00:45:20.174Z,-3.75
2023-03-17T00:48:04.446Z,-3.81
2023-03-17T00:50:47.548Z,-3.87
2023-03-17T00:53:32.223Z,-3.86
2023-03-17T00:56:15.052Z,-3.87
2023-03-17T00:58:53.096Z,-3.88
2023-03-17T01:01:48.092Z,-3.84
2023-03-17T01:04:33.152Z,-3.95
2023-03-17T01:07:19.824Z,-3.93
2023-03-17T01:10:04.473Z,-3.76
2023-03-17T01:12:48.276Z,-3.88
2023-03-17T01:15:36.443Z,-3.95
2023-03-17T01:18:20.054Z,-3.98
2023-03-17T01:20:56.966Z,-3.97
2023-03-17T01:23:43.923Z,-3.91
2023-03-17T01:26:33.147Z,-3.96
2023-03-17T01:29:17.037Z,-4.16
2023-03-17T01:32:00.392Z,-4.17
2023-03-17T01:34:42.116Z,-4.25
2023-03-17T01:37:23.765Z,-4.25
2023-03-17T01:40:10.609Z,-4.09
2023-03-17T01:42:57.008Z,-4.19
2023-03-17T01:45:48.315Z,-4.25
2023-03-17T01:48:33.016Z,-4.23
2023-03-17T01:51:32.604Z,-4.27
2023-03-17T01:54:19.889Z,-4.34
2023-03-17T01:57:07.668Z,-4.24
2023-03-17T01:59:56.073Z,-4.32
2023-03-17T02:02:44.099Z,-4.36
2023-03-17T02:05:25.724Z,-4.38
2023-03-17T02:08:17.785Z,-4.50
2023-03-17T02:11:03.503Z,-4.50
2023-03-17T02:13:44.792Z,-4.45
2023-03-17T02:16:29.431Z,-4.50
2023-03-17T02:19:10.530Z,-4.53
2023-03-17T02:22:06.024Z,-4.59
2023-03-17T02:25:03.848Z,-4.59
2023-03-17T02:27:48.538Z,-4.66
2023-03-17T02:30:33.820Z,-4.63
2023-03-17T02:33:23.048Z,-4.60
2023-03-17T02:36:10.563Z,-4.64
2023-03-17T02:38:55.370Z,-4.60
2023-03-17T02:41:38.812Z,-4.63
2023-03-17T02:44:27.355Z,-4.64
2023-03-17T02:47:08.674Z,-4.64
2023-03-17T02:49:52.540Z,-4.50
2023-03-17T02:52:47.129Z,-4.48
2023-03-17T02:55:26.444Z,-4.51
2023-03-17T02:58:15.639Z,-4.54
2023-03-17T03:01:03.306Z,-4.56
2023-03-17T03:03:47.424Z,-4.61
2023-03-17T03:06:34.400Z,-4.65
2023-03-17T03:09:20.576Z,-4.63
2023-03-17T03:12:10.117Z,-4.63
2023-03-17T03:15:00.898Z,-4.69
2023-03-17T03:17:44.775Z,-4.70
2023-03-17T03:20:22.136Z,-4.79
2023-03-17T03:23:04.109Z,-4.84
2023-03-17T03:25:39.486Z,-4.75
2023-03-17T03:28:17.781Z,-4.79
2023-03-17T03:31:11.278Z,-4.72
2023-03-17T03:33:54.607Z,-4.75
2023-03-17T03:36:37.223Z,-4.79
2023-03-17T03:39:21.455Z,-4.67
2023-03-17T03:42:08.116Z,-4.69
2023-03-17T03:44:50.769Z,-4.79
2023-03-17T03:47:42.669Z,-4.90
2023-03-17T03:50:23.737Z,-4.89
2023-03-17T03:53:06.146Z,-4.92
2023-03-17T03:55:44.450Z,-4.91
2023-03-17T03:58:23.125Z,-5.01
2023-03-17T04:01:13.358Z,-5.09
2023-03-17T04:04:00.612Z,-5.08
2023-03-17T04:06:40.797Z,-5.10
2023-03-17T04:09:22.458Z,-5.17
2023-03-17T04:12:10.538Z,-5.16
2023-03-17T04:14:49.299Z,-5.12
2023-03-17T04:17:38.918Z,-5.11
2023-03-17T04:20:33.074Z,-5.08
2023-03-17T04:23:15.083Z,-5.05
2023-03-17T04:26:02.567Z,-5.05
2023-03-17T04:28:43.671Z,-5.14
2023-03-17T04:31:33.822Z,-5.17
2023-03-17T04:34:19.203Z,-5.21
2023-03-17T04:37:04.086Z,-5.22
2023-03-17T04:39:56.008Z,-5.17
2023-03-17T04:42:37.905Z,-5.18
2023-03-17T04:45:25.764Z,-5.16
2023-03-17T04:48:17.385Z,-5.15
2023-03-17T04:50:58.787Z,-5.13
2023-03-17T04:53:49.217Z,-5.10
2023-03-17T04:56:38.556Z,-5.17
2023-03-17T04:59:19.175Z,-5.18
2023-03-17T05:02:02.450Z,-5.13
2023-03-17T05:04:40.736Z,-5.13
2023-03-17T05:07:24.626Z,-5.17
2023-03-17T05:10:07.072Z,-5.12
2023-03-17T05:12:47.946Z,-5.11
2023-03-17T05:15:31.349Z,-5.09
2023-03-17T05:18:11.402Z,-5.04
2023-03-17T05:21:00.719Z,-5.11
2023-03-17T05:23:55.033Z,-5.07
2023-03-17T05:26:41.358Z,-5.00
2023-03-17T05:29:24.574Z,-4.84
2023-03-17T05:32:02.625Z,-4.82
2023-03-17T05:34:40.641Z,-4.78
2023-03-17T05:37:27.581Z,-4.49
2023-03-17T05:40:14.612Z,-4.43
2023-03-17T05:43:17.565Z,-4.45
2023-03-17T05:45:50.075Z,-4.43
2023-03-17T05:48:36.487Z,-4.28
2023-03-17T05:51:32.668Z,-4.14
2023-03-17T05:54:15.888Z,-3.79
2023-03-17T05:56:59.785Z,-3.45
2023-03-17T05:59:46.035Z,-3.19
2023-03-17T06:02:29.047Z,-2.77
2023-03-17T06:05:18.226Z,-2.47
2023-03-17T06:08:04.806Z,-2.04
2023-03-17T06:10:37.897Z,-1.60
2023-03-17T06:13:27.365Z,-1.23
2023-03-17T06:16:18.590Z,-0.83
2023-03-17T06:19:02.424Z,-0.53
2023-03-17T06:21:43.218Z,-0.15
2023-03-17T06:24:27.596Z,0.18
2023-03-17T06:27:16.540Z,0.51
2023-03-17T06:29:52.122Z,0.96
2023-03-17T06:32:40.172Z,1.39
2023-03-17T06:35:19.405Z,1.77
2023-03-17T06:37:57.411Z,2.04
2023-03-17T06:40:39.160Z,2.27
2023-03-17T06:43:21.095Z,2.63
2023-03-17T06:46:07.184Z,2.97
2023-03-17T06:48:47.969Z,3.18
2023-03-17T06:51:25.624Z,3.52
2023-03-17T06:54:10.372Z,3.83
2023-03-17T06:56:54.006Z,4.14
2023-03-17T06:59:35.512Z,4.35
2023-03-17T07:02:27.751Z,4.68
2023-03-17T07:05:06.844Z,4.95
2023-03-17T07:07:44.780Z,5.13
2023-03-17T07:10:25.533Z,5.28
2023-03-17T07:13:16.451Z,5.53
2023-03-17T07:16:00.796Z,5.84
2023-03-17T07:18:36.357Z,6.07
2023-03-17T07:21:14.770Z,6.23
2023-03-17T07:24:04.508Z,6.45
2023-03-17T07:26:46.293Z,6.68
2023-03-17T07:29:21.013Z,6.82
2023-03-17T07:32:07.137Z,7.05
2023-03-17T07:34:46.511Z,7.20
2023-03-17T07:37:35.444Z,7.10
2023-03-17T07:40:13.554Z,7.28
2023-03-17T07:42:55.485Z,7.35
2023-03-17T07:45:36.256Z,7.28
2023-03-17T07:48:14.802Z,7.25
2023-03-17T07:51:00.785Z,7.29
2023-03-17T07:53:39.012Z,7.43
2023-03-17T07:56:29.035Z,7.37
2023-03-17T07:59:13.240Z,7.35
2023-03-17T08:01:52.166Z,7.47
2023-03-17T08:04:27.831Z,7.83
2023-03-17T08:07:10.889Z,8.00
2023-03-17T08:09:52.865Z,8.28
2023-03-17T08:12:30.038Z,8.48
2023-03-17T08:15:20.980Z,8.71
2023-03-17T08:18:01.829Z,8.87
2023-03-17T08:20:45.519Z,8.81
2023-03-17T08:23:32.613Z,8.98
2023-03-17T08:26:14.274Z,9.27
2023-03-17T08:29:07.303Z,9.41
2023-03-17T08:31:53.637Z,9.46
2023-03-17T08:34:36.325Z,9.50
2023-03-17T08:37:12.688Z,9.29
2023-03-17T08:39:59.177Z,9.63
2023-03-17T08:42:44.785Z,9.61
2023-03-17T08:45:28.382Z,9.65
2023-03-17T08:48:15.012Z,9.45
2023-03-17T08:51:03.476Z,9.80
2023-03-17T08:53:45.059Z,9.89
2023-03-17T08:56:28.937Z,9.88
2023-03-17T08:59:19.601Z,10.05
2023-03-17T09:02:00.912Z,10.11
2023-03-17T09:04:38.982Z,10.19
2023-03-17T09:07:20.649Z,10.06
2023-03-17T09:10:06.041Z,9.83
2023-03-17T09:12:45.231Z,9.80
2023-03-17T09:15:27.997Z,10.12
2023-03-17T09:18:14.415Z,10.29
2023-03-17T09:20:55.173Z,10.12
2023-03-17T09:23:44.362Z,10.38
2023-03-17T09:26:22.442Z,10.36
2023-03-17T09:29:05.956Z,10.48
2023-03-17T09:31:48.608Z,10.63
2023-03-17T09:34:26.557Z,10.46
2023-03-17T09:37:14.928Z,10.60
2023-03-17T09:39:56.166Z,10.74
2023-03-17T09:42:53.891Z,10.70
2023-03-17T09:45:51.420Z,10.71
2023-03-17T09:48:45.845Z,10.45
2023-03-17T09:51:40.058Z,10.37
2023-03-17T09:54:38.176Z,10.57
2023-03-17T09:57:24.934Z,10.61
2023-03-17T10:00:26.951Z,10.79
2023-03-17T10:03:12.615Z,11.04
2023-03-17T10:05:55.854Z,10.90
2023-03-17T10:08:49.155Z,11.04
2023-03-17T10:11:47.657Z,11.13
2023-03-17T10:14:55.259Z,11.36
2023-03-17T10:17:51.269Z,11.62
2023-03-17T10:20:36.691Z,11.64
2023-03-17T10:23:27.312Z,11.47
2023-03-17T10:26:30.634Z,11.44
2023-03-17T10:29:13.421Z,11.54
2023-03-17T10:31:51.741Z,11.78
2023-03-17T10:34:33.118Z,11.47
2023-03-17T10:37:36.762Z,11.32
2023-03-17T10:40:24.265Z,11.27
2023-03-17T10:43:19.059Z,11.34
2023-03-17T10:46:12.078Z,11.35
2023-03-17T10:48:54.973Z,11.45
2023-03-17T10:51:40.768Z,11.38
2023-03-17T10:54:25.385Z,11.62
2023-03-17T10:57:13.649Z,11.98
2023-03-17T11:00:11.992Z,11.97
2023-03-17T11:02:59.055Z,12.01
2023-03-17T11:05:39.747Z,11.93
2023-03-17T11:08:42.084Z,11.88
2023-03-17T11:11:39.149Z,12.40
2023-03-17T11:14:31.207Z,12.64
2023-03-17T11:17:25.459Z,12.38
2023-03-17T11:20:15.822Z,12.47
2023-03-17T11:23:22.332Z,12.69
2023-03-17T11:26:26.259Z,12.79
2023-03-17T11:29:35.349Z,12.97
2023-03-17T11:32:44.265Z,12.97
2023-03-17T11:35:41.656Z,12.91
2023-03-17T11:38:51.694Z,12.80
2023-03-17T11:41:38.844Z,12.24
2023-03-17T11:44:38.180Z,12.55
2023-03-17T11:47:43.093Z,12.69
2023-03-17T11:50:39.422Z,12.14
2023-03-17T11:53:53.994Z,12.02
2023-03-17T11:56:49.314Z,12.34
2023-03-17T11:59:52.158Z,12.76
2023-03-17T12:02:44.464Z,12.90
2023-03-17T12:05:29.673Z,13.33
2023-03-17T12:08:29.929Z,12.90
2023-03-17T12:11:08.851Z,12.84
2023-03-17T12:14:19.818Z,13.38
2023-03-17T12:17:19.222Z,12.67
2023-03-17T12:20:12.920Z,13.01
2023-03-17T12:23:08.929Z,12.53
2023-03-17T12:26:01.051Z,12.44
2023-03-17T12:28:44.238Z,12.63
2023-03-17T12:31:36.988Z,12.60
2023-03-17T12:34:23.487Z,12.94
2023-03-17T12:37:16.050Z,13.12
2023-03-17T12:40:20.031Z,13.27
2023-03-17T12:43:08.718Z,13.20
2023-03-17T12:46:17.479Z,13.35
2023-03-17T12:49:17.375Z,13.29
2023-03-17T12:52:10.450Z,13.64
2023-03-17T12:54:57.830Z,13.72
2023-03-17T12:58:10.995Z,13.83
2023-03-17T13:01:13.114Z,14.08
2023-03-17T13:04:10.026Z,13.72
2023-03-17T13:07:16.118Z,13.87
2023-03-17T13:10:40.879Z,13.83
2023-03-17T13:13:39.094Z,13.65
2023-03-17T13:16:47.025Z,13.71
2023-03-17T13:19:36.357Z,13.75
2023-03-17T13:22:44.961Z,14.20
2023-03-17T13:25:41.366Z,14.28
2023-03-17T13:28:25.694Z,14.26
2023-03-17T13:31:32.087Z,14.29
2023-03-17T13:34:25.483Z,14.46
2023-03-17T13:37:29.483Z,14.29
2023-03-17T13:40:21.522Z,14.01
2023-03-17T13:43:31.032Z,14.09
2023-03-17T13:46:28.752Z,14.36
2023-03-17T13:49:29.711Z,14.29
2023-03-17T13:52:41.548Z,14.15
2023-03-17T13:55:35.110Z,14.47
2023-03-17T13:58:52.084Z,14.61
2023-03-17T14:01:34.517Z,14.46
2023-03-17T14:04:24.798Z,14.44
2023-03-17T14:07:13.107Z,14.69
2023-03-17T14:09:54.932Z,13.94
2023-03-17T14:12:57.681Z,13.64
2023-03-17T14:16:01.314Z,13.58
2023-03-17T14:18:52.709Z,13.96
2023-03-17T14:21:42.186Z,14.16
2023-03-17T14:24:33.826Z,14.23
2023-03-17T14:27:18.873Z,14.08
2023-03-17T14:30:02.524Z,14.21
2023-03-17T14:32:43.923Z,14.30
2023-03-17T14:35:23.318Z,14.18
2023-03-17T14:38:02.207Z,14.29
2023-03-17T14:40:45.458Z,13.92
2023-03-17T14:43:25.625Z,13.95
2023-03-17T14:46:18.616Z,14.06
2023-03-17T14:49:29.206Z,14.15
2023-03-17T14:52:32.700Z,13.89
2023-03-17T14:55:16.169Z,13.88
2023-03-17T14:58:14.560Z,13.54
2023-03-17T15:01:06.218Z,13.41
2023-03-17T15:03:59.633Z,13.33
2023-03-17T15:07:01.471Z,13.28
2023-03-17T15:09:48.352Z,13.40
2023-03-17T15:12:29.012Z,13.63
2023-03-17T15:15:38.475Z,13.64
2023-03-17T15:18:23.595Z,13.63
2023-03-17T15:21:01.205Z,13.52
2023-03-17T15:23:50.902Z,13.55
2023-03-17T15:26:41.736Z,13.60
2023-03-17T15:29:27.921Z,13.79
2023-03-17T15:32:19.913Z,14.14
2023-03-17T15:35:03.816Z,14.29
2023-03-17T15:38:00.987Z,14.16
2023-03-17T15:40:36.165Z,14.75
2023-03-17T15:43:22.796Z,15.58
2023-03-17T15:46:11.609Z,15.32
2023-03-17T15:48:52.084Z,15.55
2023-03-17T15:51:36.280Z,15.67
2023-03-17T15:54:20.404Z,16.20
2023-03-17T15:56:59.851Z,16.34
2023-03-17T15:59:48.612Z,16.48
2023-03-17T16:02:42.746Z,16.92
2023-03-17T16:05:44.418Z,16.99
2023-03-17T16:08:25.966Z,17.07
2023-03-17T16:11:15.320Z,16.90
2023-03-17T16:13:59.691Z,16.79
2023-03-17T16:19:49.817Z,15.30
2023-03-17T16:22:49.712Z,13.81
2023-03-17T16:25:36.540Z,12.97
2023-03-17T16:28:25.358Z,12.20
2023-03-17T16:31:07.244Z,11.55
2023-03-17T16:33:53.988Z,11.39
2023-03-17T16:36:40.467Z,11.16
2023-03-17T16:39:26.741Z,10.64
2023-03-17T16:42:07.199Z,10.15
2023-03-17T16:44:56.551Z,9.84
2023-03-17T16:47:38.390Z,9.56
2023-03-17T16:50:30.819Z,9.20
2023-03-17T16:53:09.296Z,8.89
2023-03-17T16:55:57.568Z,8.75
2023-03-17T16:58:36.940Z,8.39
2023-03-17T17:01:49.351Z,8.18
2023-03-17T17:04:41.372Z,8.02
2023-03-17T17:07:19.653Z,7.89
2023-03-17T17:09:58.341Z,7.73
2023-03-17T17:12:48.195Z,7.70
2023-03-17T17:15:31.890Z,7.53
2023-03-17T17:18:31.330Z,7.32
2023-03-17T17:21:18.908Z,7.22
2023-03-17T17:24:04.323Z,7.07
2023-03-17T17:26:49.135Z,6.98
2023-03-17T17:29:26.223Z,6.90
2023-03-17T17:32:10.441Z,6.76
2023-03-17T17:34:51.734Z,6.61
2023-03-17T17:37:32.602Z,6.49
2023-03-17T17:40:13.886Z,6.33
2023-03-17T17:42:58.414Z,6.23
2023-03-17T17:45:54.225Z,6.14
2023-03-17T17:48:36.446Z,6.14
2023-03-17T17:51:19.562Z,6.02
2023-03-17T17:54:07.966Z,5.98
2023-03-17T17:56:50.019Z,6.06
2023-03-17T17:59:33.516Z,5.89
2023-03-17T18:02:19.996Z,5.77
2023-03-17T18:05:01.306Z,5.77
2023-03-17T18:07:49.551Z,5.62
2023-03-17T18:10:33.727Z,5.55
2023-03-17T18:13:15.327Z,5.55
2023-03-17T18:16:02.120Z,5.50
2023-03-17T18:18:43.332Z,5.41
2023-03-17T18:21:34.890Z,5.33
2023-03-17T18:24:09.246Z,5.36
2023-03-17T18:26:55.664Z,5.25
2023-03-17T18:29:40.448Z,5.11
2023-03-17T18:32:21.904Z,5.14
2023-03-17T18:35:07.112Z,5.08
2023-03-17T18:37:57.686Z,5.10
2023-03-17T18:40:41.198Z,5.02
2023-03-17T18:43:28.834Z,4.96
2023-03-17T18:46:13.159Z,4.94
2023-03-17T18:49:05.943Z,4.84
2023-03-17T18:51:48.286Z,4.60
2023-03-17T18:54:33.582Z,4.42
2023-03-17T18:57:28.205Z,4.09
2023-03-17T19:00:10.807Z,4.04
2023-03-17T19:02:54.196Z,3.88
2023-03-17T19:05:42.591Z,3.80
2023-03-17T19:08:31.978Z,3.76
2023-03-17T19:11:09.422Z,3.68
2023-03-17T19:13:58.384Z,3.60
2023-03-17T19:16:37.045Z,3.60
2023-03-17T19:19:31.367Z,3.38
2023-03-17T19:22:16.570Z,3.21
2023-03-17T19:25:05.015Z,3.09
2023-03-17T19:27:42.861Z,2.85
2023-03-17T19:30:24.533Z,2.72
2023-03-17T19:33:11.768Z,2.55
2023-03-17T19:36:00.175Z,2.42
2023-03-17T19:38:42.797Z,2.31
2023-03-17T19:41:26.685Z,2.20
2023-03-17T19:44:07.034Z,2.16
2023-03-17T19:47:05.098Z,2.09
2023-03-17T19:49:45.649Z,2.04
2023-03-17T19:52:26.559Z,1.98
2023-03-17T19:55:11.233Z,1.91
2023-03-17T19:57:52.406Z,1.81
2023-03-17T20:00:33.740Z,1.73
2023-03-17T20:03:16.773Z,1.59
2023-03-17T20:06:00.258Z,1.46
2023-03-17T20:08:46.285Z,1.37
2023-03-17T20:11:27.558Z,1.38
2023-03-17T20:14:06.336Z,1.36
2023-03-17T20:16:54.755Z,1.35
2023-03-17T20:19:49.876Z,1.22
2023-03-17T20:22:33.675Z,1.07
2023-03-17T20:25:12.438Z,1.04
2023-03-17T20:27:53.571Z,1.01
2023-03-17T20:30:33.452Z,0.98
2023-03-17T20:33:12.337Z,0.85
2023-03-17T20:36:02.212Z,0.82
2023-03-17T20:38:43.190Z,0.83
2023-03-17T20:41:21.088Z,0.78
2023-03-17T20:44:04.688Z,0.85
2023-03-17T20:46:54.465Z,0.83
2023-03-17T20:49:48.877Z,0.75
2023-03-17T20:52:36.486Z,0.69
2023-03-17T20:55:17.735Z,0.68
2023-03-17T20:57:59.294Z,0.68
2023-03-17T21:00:43.599Z,0.65
2023-03-17T21:03:30.174Z,0.50
2023-03-17T21:06:13.469Z,0.46
2023-03-17T21:08:58.799Z,0.31
2023-03-17T21:11:42.193Z,0.32
2023-03-17T21:14:23.907Z,0.31
2023-03-17T21:17:01.359Z,0.35
2023-03-17T21:19:56.500Z,0.32
2023-03-17T21:22:39.688Z,0.28
2023-03-17T21:25:17.998Z,0.16
2023-03-17T21:28:16.858Z,0.08
2023-03-17T21:31:00.848Z,0.02
2023-03-17T21:33:36.217Z,0.07
2023-03-17T21:36:20.507Z,0.05
2023-03-17T21:39:04.632Z,0.10
2023-03-17T21:42:04.580Z,0.00
2023-03-17T21:44:42.877Z,0.00
2023-03-17T21:47:32.391Z,-0.17
2023-03-17T21:50:17.857Z,-0.22
2023-03-17T21:52:58.638Z,-0.11
2023-03-17T21:55:48.025Z,0.09
2023-03-17T21:58:24.016Z,0.30
2023-03-17T22:01:03.221Z,0.53
2023-03-17T22:03:46.549Z,0.48
2023-03-17T22:06:34.235Z,0.43
2023-03-17T22:09:13.080Z,0.38
2023-03-17T22:12:03.778Z,0.37
2023-03-17T22:14:39.104Z,0.29
2023-03-17T22:17:17.283Z,0.15
2023-03-17T22:19:55.990Z,0.12
2023-03-17T22:22:34.569Z,-0.05
2023-03-17T22:25:23.469Z,-0.17
2023-03-17T22:28:04.657Z,-0.28
2023-03-17T22:30:48.545Z,-0.33
2023-03-17T22:33:23.930Z,-0.36
2023-03-17T22:36:10.498Z,-0.49
2023-03-17T22:38:56.726Z,-0.42
2023-03-17T22:41:40.551Z,-0.38
2023-03-17T22:44:15.422Z,-0.62
2023-03-17T22:47:01.348Z,-0.51
2023-03-17T22:49:46.870Z,-0.46
2023-03-17T22:52:38.015Z,-0.29
2023-03-17T22:55:16.316Z,-0.11
2023-03-17T22:58:07.619Z,0.08
2023-03-17T23:00:48.372Z,0.16
2023-03-17T23:03:32.140Z,0.49
2023-03-17T23:06:14.784Z,0.46
2023-03-17T23:08:51.258Z,0.36
2023-03-17T23:11:27.114Z,0.31
2023-03-17T23:14:05.440Z,0.50
2023-03-17T23:16:45.368Z,0.58
2023-03-17T23:19:30.678Z,0.71
2023-03-17T23:22:14.359Z,0.75
2023-03-17T23:24:58.313Z,0.84
2023-03-17T23:27:41.537Z,1.02
2023-03-17T23:30:21.978Z,1.02
2023-03-17T23:33:02.154Z,1.15
2023-03-17T23:35:46.313Z,1.13
2023-03-17T23:38:30.718Z,1.11
2023-03-17T23:41:11.596Z,1.03
2023-03-17T23:43:52.944Z,0.86
2023-03-17T23:46:39.208Z,0.58
2023-03-17T23:49:26.011Z,0.43
2023-03-17T23:52:01.955Z,0.36
2023-03-17T23:54:55.495Z,0.22
2023-03-17T23:57:44.331Z,0.16
